Aérodrome :
LOGIN :

S'inscrire | Disclaimer

   EN    FR    IT 

 










Légende :    VFR   VFR Marginal   IFR   IFR Intensif   IFR Très Intensif
Visi : 
Plafond : 
>= 8 km
>= 3000ft
5 à 8 km
1000 à 3000 ft
1500m à 5 km
500 à 1000 ft
800 à 1500m
200 à 500 ft
< 800m
< 200 ft
Symboles :   Orages  Brouillard  Fortes neiges  Fortes précipitations  Vent > 20 kt
SIGMETs :   Divers  Orages  Givrage  Turbulence  Onde Orograph.  Cendres Volcan.






- Altitude de l'aérodrome : 458 ft


LFSI - St-Dizier

DERNIER METAR :
  • 080600Z AUTO 03005KT CAVOK M03/M07 Q1034

METARs EXPIRÉS :
  • 080530Z AUTO 04004KT 020V080 CAVOK M02/M07 Q1034
  • 080500Z AUTO 05006KT CAVOK M02/M07 Q1034
  • 080430Z AUTO 03003KT 360V070 CAVOK M02/M07 Q1034
  • 080400Z AUTO 05005KT CAVOK M02/M07 Q1034
  • 080330Z AUTO 07004KT CAVOK M02/M07 Q1035

TAF TAF LFSI
Valide du 08 à 03h jusqu'au 09 à 03h UTC


080200Z 0803/0903 04004KT CAVOK



MET'MAP, la Météo Aéronautique d'un coup d'oeil ! - Copyright ORBIFLY Décembre 2007 - Disclaimer

ORBIFLY MET'MAP TEAM :

Programmation & Développement : Alexandra Zaïnal
Sur une idée originale de : Baudouin d'Aumeries
Soutien technique & logistique : Manuel Goepfert
Assistance : Marc-Olivier Méhu




SOURCES & CREDITS :

   NOAA